Charlottetown, Canada
Current Conditions -  °F | °C
As of 3:00 AM on Thursday 23 Oct 2014 (Local Time) from CYYG Reporting Station
Broken Clouds Broken Clouds  
Wind Chill: 44°   Ceiling: 10000
Heat Index: 48°   Visibility: 15mi
Dew Point: 45°   Wind: 10mph
Humidity: 87%   Direction: 60°ENE
Pressure: 30.27"   Gusts: NA
Location:  46.24°N, 63.13°W
Report Text: CYYG 230600Z 06009KT 15SM SCT050 BKN100 09/07 A3027 RMK SC3AC4 SLP252
Loading
Personal Weather Stations






























Interactive Weather Map
Tropical Storm Tracking
New forecast layout! Learn more

10-Day Weather Forecast

Advertisements
Track Severe Weather on mobile